Aérodrome :
LOGIN :

S'inscrire | Disclaimer

   EN    FR    IT 

 










Légende :    VFR   VFR Marginal   IFR   IFR Intensif   IFR Très Intensif
Visi : 
Plafond : 
>= 8 km
>= 3000ft
5 à 8 km
1000 à 3000 ft
1500m à 5 km
500 à 1000 ft
800 à 1500m
200 à 500 ft
< 800m
< 200 ft
Symboles :   Orages  Brouillard  Fortes neiges  Fortes précipitations  Vent > 20 kt
SIGMETs :   Divers  Orages  Givrage  Turbulence  Onde Orograph.  Cendres Volcan.






- Altitude de l'aérodrome : 112 ft
- Code IATA : SVQ


LEZL - Sevilla San Pablo

DERNIER METAR :
  • 250000Z 19005KT CAVOK 13/09 Q1024 NOSIG

METARs EXPIRÉS :
  • 242330Z 20005KT CAVOK 14/09 Q1024 NOSIG
  • 242300Z VRB03KT CAVOK 13/09 Q1025 NOSIG
  • 242230Z VRB02KT CAVOK 13/09 Q1025 NOSIG
  • 242200Z 20005KT CAVOK 15/09 Q1025 NOSIG
  • 242130Z VRB02KT CAVOK 15/09 Q1025 NOSIG

TAF TAF LEZL
Valide du 24 à 21h jusqu'au 25 à 21h UTC


242000Z 2421/2521 20004KT CAVOK TX23/2515Z TN08/2507Z
PROB40
TEMPO 2505/2509 4000 BR
PROB30
TEMPO 2506/2509 0500 FG VV001
BECMG 2513/2515 32010KT



MET'MAP, la Météo Aéronautique d'un coup d'oeil ! - Copyright ORBIFLY Décembre 2007 - Disclaimer

ORBIFLY MET'MAP TEAM :

Programmation & Développement : Alexandra Zaïnal
Sur une idée originale de : Baudouin d'Aumeries
Assistance à la programmation : Marc-Olivier Méhu
Soutien technique & logistique : Manuel Goepfert

Contact : metmap@orbifly.com




SOURCES & CREDITS :

   NOAA